createdAt,value
2019-03-31T00:02:25.324Z,8.90
2019-03-31T00:04:53.227Z,8.90
2019-03-31T00:07:21.121Z,8.90
2019-03-31T00:09:49.046Z,8.80
2019-03-31T00:12:16.938Z,8.80
2019-03-31T00:14:44.771Z,8.80
2019-03-31T00:17:12.782Z,8.70
2019-03-31T00:19:40.712Z,8.60
2019-03-31T00:22:08.593Z,8.60
2019-03-31T00:24:36.535Z,8.60
2019-03-31T00:27:04.483Z,8.60
2019-03-31T00:29:32.409Z,8.60
2019-03-31T00:32:00.347Z,8.60
2019-03-31T00:34:28.226Z,8.60
2019-03-31T00:36:56.158Z,8.60
2019-03-31T00:39:24.099Z,8.50
2019-03-31T00:41:52.012Z,8.50
2019-03-31T00:44:19.970Z,8.40
2019-03-31T00:46:47.877Z,8.40
2019-03-31T00:49:15.823Z,8.30
2019-03-31T00:51:43.753Z,8.20
2019-03-31T00:54:11.733Z,8.20
2019-03-31T00:56:39.666Z,8.20
2019-03-31T00:59:07.574Z,8.20
2019-03-31T01:01:37.301Z,8.20
2019-03-31T01:04:05.375Z,8.10
2019-03-31T01:06:34.304Z,8.10
2019-03-31T01:09:04.363Z,8.10
2019-03-31T01:11:32.369Z,8.00
2019-03-31T01:14:00.219Z,8.00
2019-03-31T01:16:29.674Z,8.00
2019-03-31T01:18:57.579Z,7.90
2019-03-31T01:21:25.518Z,7.90
2019-03-31T01:23:53.440Z,8.00
2019-03-31T01:26:21.870Z,7.90
2019-03-31T01:28:49.884Z,7.90
2019-03-31T01:31:17.878Z,7.90
2019-03-31T01:33:45.814Z,7.80
2019-03-31T01:36:14.106Z,7.80
2019-03-31T01:38:42.165Z,7.80
2019-03-31T01:41:10.379Z,7.70
2019-03-31T01:43:38.288Z,7.70
2019-03-31T01:46:07.867Z,7.70
2019-03-31T01:48:35.794Z,7.60
2019-03-31T01:51:03.912Z,7.60
2019-03-31T01:53:31.778Z,7.60
2019-03-31T01:55:59.737Z,7.50
2019-03-31T01:58:27.643Z,7.40
2019-03-31T02:00:57.230Z,7.30
2019-03-31T02:03:25.150Z,7.20
2019-03-31T02:05:53.074Z,7.20
2019-03-31T02:08:21.053Z,7.20
2019-03-31T02:10:49.005Z,7.10
2019-03-31T02:13:16.838Z,7.10
2019-03-31T02:15:44.786Z,7.00
2019-03-31T02:18:12.715Z,7.00
2019-03-31T02:20:40.613Z,7.10
2019-03-31T02:23:08.545Z,7.00
2019-03-31T02:25:36.402Z,7.00
2019-03-31T02:28:04.359Z,7.00
2019-03-31T02:30:32.255Z,7.00
2019-03-31T02:33:00.220Z,7.10
2019-03-31T02:35:28.108Z,7.10
2019-03-31T02:37:56.051Z,7.10
2019-03-31T02:40:23.976Z,7.10
2019-03-31T02:42:51.916Z,7.10
2019-03-31T02:45:19.824Z,7.10
2019-03-31T02:47:47.717Z,7.00
2019-03-31T02:50:17.148Z,7.00
2019-03-31T02:52:45.062Z,6.90
2019-03-31T02:55:12.941Z,6.90
2019-03-31T02:57:40.853Z,6.80
2019-03-31T03:00:08.973Z,6.80
2019-03-31T03:02:42.214Z,6.70
2019-03-31T03:05:18.663Z,6.70
2019-03-31T03:07:38.076Z,6.70
2019-03-31T03:10:06.047Z,6.60
2019-03-31T03:12:35.046Z,6.60
2019-03-31T03:15:03.338Z,6.60
2019-03-31T03:17:31.280Z,6.60
2019-03-31T03:19:59.111Z,6.60
2019-03-31T03:22:27.013Z,6.50
2019-03-31T03:24:54.894Z,6.50
2019-03-31T03:27:22.853Z,6.50
2019-03-31T03:29:50.682Z,6.50
2019-03-31T03:32:18.675Z,6.40
2019-03-31T03:34:46.561Z,6.40
2019-03-31T03:37:14.392Z,6.40
2019-03-31T03:39:42.271Z,6.30
2019-03-31T03:42:10.172Z,6.30
2019-03-31T03:44:38.118Z,6.20
2019-03-31T03:47:06.020Z,6.10
2019-03-31T03:49:34.006Z,6.20
2019-03-31T03:52:01.829Z,6.10
2019-03-31T03:54:29.731Z,6.20
2019-03-31T03:56:57.746Z,6.20
2019-03-31T03:59:25.646Z,6.20
2019-03-31T04:01:53.653Z,6.10
2019-03-31T04:04:21.489Z,6.20
2019-03-31T04:06:49.474Z,6.20
2019-03-31T04:09:17.357Z,6.20
2019-03-31T04:11:45.252Z,6.20
2019-03-31T04:14:13.060Z,6.20
2019-03-31T04:16:40.932Z,6.30
2019-03-31T04:19:08.860Z,6.30
2019-03-31T04:21:36.820Z,6.30
2019-03-31T04:24:04.766Z,6.40
2019-03-31T04:26:32.595Z,6.40
2019-03-31T04:29:00.425Z,6.40
2019-03-31T04:31:28.274Z,6.40
2019-03-31T04:33:56.209Z,6.50
2019-03-31T04:36:24.120Z,6.50
2019-03-31T04:38:52.062Z,6.50
2019-03-31T04:41:19.975Z,6.50
2019-03-31T04:43:47.846Z,6.50
2019-03-31T04:46:15.759Z,6.50
2019-03-31T04:48:43.694Z,6.60
2019-03-31T04:51:11.602Z,6.60
2019-03-31T04:53:39.557Z,6.60
2019-03-31T04:56:07.449Z,6.70
2019-03-31T04:58:35.350Z,6.70
2019-03-31T05:01:03.278Z,6.70
2019-03-31T05:03:31.177Z,6.80
2019-03-31T05:05:59.143Z,6.80
2019-03-31T05:08:27.043Z,6.90
2019-03-31T05:10:54.913Z,6.90
2019-03-31T05:13:22.832Z,6.90
2019-03-31T05:15:50.766Z,7.00
2019-03-31T05:18:18.689Z,7.00
2019-03-31T05:20:46.618Z,7.00
2019-03-31T05:23:14.531Z,7.00
2019-03-31T05:25:42.496Z,7.00
2019-03-31T05:28:10.387Z,7.10
2019-03-31T05:30:38.453Z,7.10
2019-03-31T05:33:06.286Z,7.10
2019-03-31T05:35:34.197Z,7.10
2019-03-31T05:38:02.133Z,7.20
2019-03-31T05:40:30.902Z,7.20
2019-03-31T05:42:58.866Z,7.20
2019-03-31T05:45:26.778Z,7.20
2019-03-31T05:47:54.673Z,7.30
2019-03-31T05:50:22.604Z,7.30
2019-03-31T05:52:50.463Z,7.30
2019-03-31T05:55:18.982Z,7.40
2019-03-31T05:57:47.030Z,7.40
2019-03-31T06:00:16.426Z,7.40
2019-03-31T06:02:44.286Z,7.40
2019-03-31T06:05:12.208Z,7.50
2019-03-31T06:07:40.117Z,7.50
2019-03-31T06:10:08.059Z,7.60
2019-03-31T06:12:35.997Z,7.60
2019-03-31T06:15:04.110Z,7.70
2019-03-31T06:17:32.061Z,7.80
2019-03-31T06:19:59.998Z,7.80
2019-03-31T06:22:27.928Z,7.90
2019-03-31T06:24:55.794Z,7.90
2019-03-31T06:27:23.645Z,7.90
2019-03-31T06:29:51.593Z,8.00
2019-03-31T06:32:19.498Z,8.00
2019-03-31T06:34:48.056Z,8.10
2019-03-31T06:37:15.974Z,8.10
2019-03-31T06:39:43.859Z,8.20
2019-03-31T06:42:11.766Z,8.30
2019-03-31T06:44:39.641Z,8.20
2019-03-31T06:47:07.561Z,8.30
2019-03-31T06:49:35.430Z,8.30
2019-03-31T06:52:03.363Z,8.30
2019-03-31T06:54:31.301Z,8.20
2019-03-31T06:56:59.239Z,8.30
2019-03-31T06:59:27.142Z,8.30
2019-03-31T07:01:55.020Z,8.50
2019-03-31T07:04:23.017Z,8.50
2019-03-31T07:06:50.950Z,8.60
2019-03-31T07:09:18.854Z,8.60
2019-03-31T07:11:46.753Z,8.60
2019-03-31T07:14:14.590Z,8.70
2019-03-31T07:16:42.540Z,8.70
2019-03-31T07:19:10.447Z,8.80
2019-03-31T07:21:38.396Z,8.80
2019-03-31T07:24:06.296Z,8.80
2019-03-31T07:26:34.361Z,8.70
2019-03-31T07:29:02.666Z,8.70
2019-03-31T07:31:30.623Z,8.80
2019-03-31T07:33:58.580Z,8.80
2019-03-31T07:36:26.506Z,8.80
2019-03-31T07:38:54.597Z,9.00
2019-03-31T07:41:22.608Z,9.00
2019-03-31T07:43:50.502Z,9.10
2019-03-31T07:46:18.386Z,9.10
2019-03-31T07:48:46.238Z,9.10
2019-03-31T07:51:14.203Z,9.00
2019-03-31T07:53:42.126Z,9.10
2019-03-31T07:56:10.057Z,9.10
2019-03-31T07:58:37.940Z,9.10
2019-03-31T08:01:05.811Z,9.10
2019-03-31T08:03:33.748Z,9.20
2019-03-31T08:06:01.654Z,9.30
2019-03-31T08:08:29.598Z,9.30
2019-03-31T08:10:57.519Z,9.40
2019-03-31T08:13:25.484Z,9.40
2019-03-31T08:15:53.406Z,9.40
2019-03-31T08:18:21.320Z,9.40
2019-03-31T08:20:49.267Z,9.40
2019-03-31T08:23:17.203Z,9.40
2019-03-31T08:25:45.174Z,9.40
2019-03-31T08:28:13.000Z,9.40
2019-03-31T08:30:40.947Z,9.40
2019-03-31T08:33:08.875Z,9.40
2019-03-31T08:35:47.135Z,9.40
2019-03-31T08:38:06.394Z,9.30
2019-03-31T08:40:34.280Z,9.30
2019-03-31T08:43:02.133Z,9.20
2019-03-31T08:45:30.624Z,9.20
2019-03-31T08:47:58.726Z,9.10
2019-03-31T08:50:26.645Z,9.10
2019-03-31T08:52:54.525Z,9.10
2019-03-31T08:55:22.390Z,9.10
2019-03-31T08:57:50.313Z,9.10
2019-03-31T09:00:20.895Z,9.00
2019-03-31T09:02:48.797Z,9.00
2019-03-31T09:05:16.851Z,8.90
2019-03-31T09:07:44.752Z,8.90
2019-03-31T09:10:12.675Z,8.90
2019-03-31T09:12:40.611Z,8.90
2019-03-31T09:15:09.320Z,8.90
2019-03-31T09:17:37.327Z,9.10
2019-03-31T09:20:05.782Z,9.10
2019-03-31T09:22:33.690Z,9.10
2019-03-31T09:25:01.592Z,9.30
2019-03-31T09:27:29.471Z,9.60
2019-03-31T09:29:57.348Z,9.90
2019-03-31T09:32:25.245Z,9.90
2019-03-31T09:34:53.206Z,9.90
2019-03-31T09:37:21.194Z,9.80
2019-03-31T09:39:49.061Z,9.70
2019-03-31T09:42:18.005Z,9.80
2019-03-31T09:44:46.010Z,9.90
2019-03-31T09:47:14.137Z,10.00
2019-03-31T09:49:42.134Z,10.10
2019-03-31T09:52:10.035Z,10.40
2019-03-31T09:54:38.021Z,10.80
2019-03-31T09:57:06.008Z,10.80
2019-03-31T09:59:33.904Z,10.50
2019-03-31T10:02:01.852Z,10.20
2019-03-31T10:04:29.781Z,10.20
2019-03-31T10:06:57.731Z,10.60
2019-03-31T10:09:25.652Z,11.10
2019-03-31T10:11:53.589Z,11.40
2019-03-31T10:14:21.452Z,11.90
2019-03-31T10:16:49.405Z,12.00
2019-03-31T10:19:17.319Z,11.70
2019-03-31T10:21:45.166Z,11.70
2019-03-31T10:24:13.089Z,11.70
2019-03-31T10:26:41.039Z,11.80
2019-03-31T10:29:08.903Z,12.00
2019-03-31T10:31:36.769Z,11.60
2019-03-31T10:34:04.781Z,11.20
2019-03-31T10:36:43.779Z,11.50
2019-03-31T10:39:02.253Z,12.10
2019-03-31T10:41:31.101Z,12.20
2019-03-31T10:43:58.960Z,12.00
2019-03-31T10:46:26.878Z,11.80
2019-03-31T10:48:54.810Z,11.80
2019-03-31T10:51:22.764Z,11.70
2019-03-31T10:53:50.675Z,11.50
2019-03-31T10:56:18.569Z,11.70
2019-03-31T10:58:46.516Z,11.60
2019-03-31T11:01:14.447Z,11.90
2019-03-31T11:03:42.325Z,12.40
2019-03-31T11:06:10.617Z,12.80
2019-03-31T11:08:38.521Z,12.90
2019-03-31T11:11:06.478Z,12.80
2019-03-31T11:13:34.336Z,12.60
2019-03-31T11:16:02.304Z,12.20
2019-03-31T11:18:30.207Z,12.50
2019-03-31T11:20:59.809Z,13.00
2019-03-31T11:23:28.909Z,13.50
2019-03-31T11:25:56.858Z,13.60
2019-03-31T11:28:24.727Z,12.90
2019-03-31T11:30:52.656Z,12.30
2019-03-31T11:33:20.562Z,12.10
2019-03-31T11:35:48.515Z,12.40
2019-03-31T11:38:16.459Z,12.70
2019-03-31T11:40:44.376Z,12.90
2019-03-31T11:43:12.448Z,13.30
2019-03-31T11:45:40.502Z,13.50
2019-03-31T11:48:08.410Z,13.60
2019-03-31T11:50:36.347Z,13.60
2019-03-31T11:53:04.270Z,13.90
2019-03-31T11:55:32.202Z,13.80
2019-03-31T11:58:00.128Z,14.10
2019-03-31T12:00:29.762Z,14.10
2019-03-31T12:02:57.691Z,14.10
2019-03-31T12:05:25.554Z,13.90
2019-03-31T12:07:53.391Z,13.40
2019-03-31T12:10:21.393Z,13.20
2019-03-31T12:12:49.234Z,12.90
2019-03-31T12:15:17.117Z,12.60
2019-03-31T12:17:45.063Z,12.50
2019-03-31T12:20:13.004Z,12.50
2019-03-31T12:22:40.855Z,12.60
2019-03-31T12:25:08.966Z,12.60
2019-03-31T12:27:36.897Z,12.50
2019-03-31T12:30:05.629Z,12.60
2019-03-31T12:32:33.546Z,13.00
2019-03-31T12:35:01.612Z,13.40
2019-03-31T12:37:41.638Z,13.70
2019-03-31T12:39:58.988Z,14.00
2019-03-31T12:42:26.960Z,14.20
2019-03-31T12:44:54.892Z,14.10
2019-03-31T12:47:22.830Z,13.70
2019-03-31T12:49:51.147Z,13.30
2019-03-31T12:52:19.026Z,13.30
2019-03-31T12:54:46.949Z,13.50
2019-03-31T12:57:14.896Z,13.80
2019-03-31T12:59:42.792Z,13.90
2019-03-31T13:02:10.680Z,13.90
2019-03-31T13:04:38.538Z,14.20
2019-03-31T13:07:06.493Z,14.50
2019-03-31T13:12:10.184Z,14.50
2019-03-31T13:14:38.098Z,14.20
2019-03-31T13:17:05.963Z,13.50
2019-03-31T13:19:33.895Z,13.10
2019-03-31T13:22:01.848Z,13.40
2019-03-31T13:24:29.774Z,13.70
2019-03-31T13:26:57.688Z,13.90
2019-03-31T13:29:25.674Z,14.40
2019-03-31T13:31:53.595Z,14.70
2019-03-31T13:34:21.417Z,14.70
2019-03-31T13:36:49.376Z,14.30
2019-03-31T13:39:17.316Z,14.70
2019-03-31T13:41:47.116Z,14.80
2019-03-31T13:44:14.681Z,15.00
2019-03-31T13:46:42.564Z,14.50
2019-03-31T13:49:10.485Z,13.90
2019-03-31T13:51:38.370Z,13.40
2019-03-31T13:54:06.302Z,13.70
2019-03-31T13:56:34.594Z,14.10
2019-03-31T13:59:02.683Z,14.30
2019-03-31T14:01:30.652Z,13.90
2019-03-31T14:03:58.491Z,14.00
2019-03-31T14:06:26.331Z,13.40
2019-03-31T14:08:54.219Z,13.10
2019-03-31T14:11:22.190Z,13.40
2019-03-31T14:13:50.081Z,13.70
2019-03-31T14:16:17.910Z,13.50
2019-03-31T14:18:45.871Z,14.00
2019-03-31T14:21:13.785Z,14.40
2019-03-31T14:23:43.886Z,14.90
2019-03-31T14:26:12.425Z,15.00
2019-03-31T14:28:40.605Z,15.40
2019-03-31T14:31:08.753Z,15.60
2019-03-31T14:33:36.963Z,15.70
2019-03-31T14:36:04.869Z,16.10
2019-03-31T14:38:39.967Z,16.10
2019-03-31T14:41:02.702Z,16.10
2019-03-31T14:43:30.798Z,16.20
2019-03-31T14:45:58.640Z,16.50
2019-03-31T14:48:26.483Z,16.40
2019-03-31T14:50:54.350Z,16.70
2019-03-31T14:53:22.217Z,17.00
2019-03-31T14:55:50.127Z,17.40
2019-03-31T14:58:18.032Z,17.90
2019-03-31T15:00:45.945Z,18.20
2019-03-31T15:03:13.895Z,18.30
2019-03-31T15:05:41.856Z,18.10
2019-03-31T15:08:09.680Z,17.90
2019-03-31T15:10:37.636Z,17.60
2019-03-31T15:13:05.567Z,17.60
2019-03-31T15:15:33.510Z,17.80
2019-03-31T15:18:01.370Z,17.90
2019-03-31T15:20:29.306Z,17.90
2019-03-31T15:22:57.219Z,17.80
2019-03-31T15:25:25.103Z,18.00
2019-03-31T15:27:53.030Z,17.20
2019-03-31T15:30:20.977Z,16.20
2019-03-31T15:32:48.810Z,16.20
2019-03-31T15:35:16.696Z,16.50
2019-03-31T15:37:44.523Z,16.70
2019-03-31T15:40:12.481Z,17.30
2019-03-31T15:42:40.504Z,17.40
2019-03-31T15:45:08.411Z,17.70
2019-03-31T15:47:36.462Z,17.70
2019-03-31T15:50:05.371Z,17.80
2019-03-31T15:52:33.326Z,17.50
2019-03-31T15:55:01.258Z,17.50
2019-03-31T15:57:29.261Z,17.60
2019-03-31T15:59:57.183Z,17.30
2019-03-31T16:02:26.726Z,17.20
2019-03-31T16:04:54.609Z,17.00
2019-03-31T16:07:22.450Z,17.40
2019-03-31T16:09:50.389Z,17.30
2019-03-31T16:12:18.266Z,17.20
2019-03-31T16:14:46.188Z,17.30
2019-03-31T16:17:14.057Z,17.50
2019-03-31T16:19:42.063Z,17.80
2019-03-31T16:22:10.017Z,17.30
2019-03-31T16:24:42.321Z,16.90
2019-03-31T16:27:10.241Z,16.70
2019-03-31T16:29:38.136Z,16.60
2019-03-31T16:32:06.132Z,16.40
2019-03-31T16:34:34.038Z,16.20
2019-03-31T16:37:01.910Z,15.90
2019-03-31T16:39:37.528Z,15.60
2019-03-31T16:41:59.473Z,15.30
2019-03-31T16:44:27.306Z,15.00
2019-03-31T16:46:55.150Z,14.50
2019-03-31T16:49:23.098Z,13.90
2019-03-31T16:51:51.045Z,13.60
2019-03-31T16:54:19.116Z,13.40
2019-03-31T16:56:47.150Z,13.40
2019-03-31T16:59:14.974Z,13.20
2019-03-31T17:01:42.850Z,13.40
2019-03-31T17:04:10.702Z,13.10
2019-03-31T17:06:38.581Z,12.80
2019-03-31T17:09:07.189Z,12.70
2019-03-31T17:11:35.143Z,12.50
2019-03-31T17:14:02.991Z,12.50
2019-03-31T17:16:30.945Z,12.40
2019-03-31T17:18:58.793Z,12.20
2019-03-31T17:21:26.667Z,11.90
2019-03-31T17:23:54.510Z,11.50
2019-03-31T17:26:22.450Z,11.10
2019-03-31T17:28:50.401Z,10.70
2019-03-31T17:31:18.325Z,10.30
2019-03-31T17:33:46.281Z,10.10
2019-03-31T17:36:14.142Z,9.90
2019-03-31T17:38:42.064Z,9.70
2019-03-31T17:41:10.266Z,9.60
2019-03-31T17:43:38.086Z,9.50
2019-03-31T17:46:05.930Z,9.40
2019-03-31T17:48:33.886Z,9.20
2019-03-31T17:51:01.733Z,9.10
2019-03-31T17:53:29.765Z,8.90
2019-03-31T17:55:57.840Z,8.80
2019-03-31T17:58:25.695Z,8.70
2019-03-31T18:00:53.610Z,8.60
2019-03-31T18:03:21.473Z,8.50
2019-03-31T18:05:49.410Z,8.30
2019-03-31T18:08:17.366Z,8.30
2019-03-31T18:10:45.503Z,8.10
2019-03-31T18:13:13.679Z,8.00
2019-03-31T18:15:41.638Z,7.90
2019-03-31T18:18:09.606Z,7.80
2019-03-31T18:20:37.460Z,7.70
2019-03-31T18:23:05.371Z,7.70
2019-03-31T18:25:33.237Z,7.60
2019-03-31T18:28:01.097Z,7.60
2019-03-31T18:30:29.026Z,7.50
2019-03-31T18:32:57.114Z,7.50
2019-03-31T18:35:24.922Z,7.40
2019-03-31T18:37:52.797Z,7.30
2019-03-31T18:40:34.024Z,7.20
2019-03-31T18:42:50.252Z,7.10
2019-03-31T18:45:18.161Z,7.10
2019-03-31T18:47:46.206Z,7.00
2019-03-31T18:50:14.108Z,7.00
2019-03-31T18:52:42.006Z,6.90
2019-03-31T18:55:11.847Z,6.80
2019-03-31T18:57:44.096Z,6.80
2019-03-31T19:00:22.491Z,6.60
2019-03-31T19:02:52.062Z,6.60
2019-03-31T19:05:39.455Z,6.60
2019-03-31T19:08:11.547Z,6.50
2019-03-31T19:10:49.557Z,6.50
2019-03-31T19:13:27.141Z,6.40
2019-03-31T19:16:11.678Z,6.40
2019-03-31T19:18:53.312Z,6.30
2019-03-31T19:21:34.835Z,6.30
2019-03-31T19:24:05.942Z,6.20
2019-03-31T19:26:48.262Z,6.20
2019-03-31T19:29:25.357Z,6.10
2019-03-31T19:32:00.805Z,6.00
2019-03-31T19:34:39.373Z,6.00
2019-03-31T19:37:15.023Z,5.90
2019-03-31T19:39:53.710Z,5.90
2019-03-31T19:42:23.234Z,5.80
2019-03-31T19:44:55.644Z,5.80
2019-03-31T19:47:25.187Z,5.70
2019-03-31T19:50:09.773Z,5.70
2019-03-31T19:52:57.116Z,5.70
2019-03-31T19:55:42.814Z,5.60
2019-03-31T19:58:12.313Z,5.60
2019-03-31T20:00:44.890Z,5.40
2019-03-31T20:03:14.383Z,5.40
2019-03-31T20:05:49.933Z,5.40
2019-03-31T20:08:19.427Z,5.40
2019-03-31T20:10:49.175Z,5.30
2019-03-31T20:13:33.490Z,5.30
2019-03-31T20:16:08.881Z,5.20
2019-03-31T20:18:54.417Z,5.20
2019-03-31T20:21:32.214Z,5.20
2019-03-31T20:24:01.229Z,5.10
2019-03-31T20:26:47.174Z,5.10
2019-03-31T20:29:22.717Z,5.10
2019-03-31T20:31:58.246Z,5.00
2019-03-31T20:34:33.548Z,5.00
2019-03-31T20:37:19.554Z,4.90
2019-03-31T20:39:56.493Z,4.80
2019-03-31T20:42:29.699Z,4.80
2019-03-31T20:44:57.707Z,4.70
2019-03-31T20:47:25.712Z,4.70
2019-03-31T20:49:55.643Z,4.70
2019-03-31T20:52:23.561Z,4.60
2019-03-31T20:54:51.498Z,4.60
2019-03-31T20:57:19.393Z,4.60
2019-03-31T20:59:47.473Z,4.50
2019-03-31T21:02:15.462Z,4.50
2019-03-31T21:04:43.375Z,4.40
2019-03-31T21:07:11.269Z,4.40
2019-03-31T21:09:45.053Z,4.30
2019-03-31T21:12:08.661Z,4.40
2019-03-31T21:14:36.695Z,4.40
2019-03-31T21:17:04.654Z,4.40
2019-03-31T21:19:32.555Z,4.40
2019-03-31T21:22:00.429Z,4.40
2019-03-31T21:24:28.315Z,4.40
2019-03-31T21:26:56.254Z,4.40
2019-03-31T21:29:24.090Z,4.30
2019-03-31T21:31:52.135Z,4.30
2019-03-31T21:34:19.973Z,4.30
2019-03-31T21:36:47.990Z,4.20
2019-03-31T21:39:15.850Z,4.10
2019-03-31T21:41:43.797Z,4.00
2019-03-31T21:44:12.059Z,3.90
2019-03-31T21:46:39.961Z,3.90
2019-03-31T21:49:07.899Z,3.80
2019-03-31T21:51:35.806Z,3.70
2019-03-31T21:54:03.956Z,3.60
2019-03-31T21:56:31.863Z,3.60
2019-03-31T21:58:59.710Z,3.50
2019-03-31T22:01:27.646Z,3.50
2019-03-31T22:03:55.628Z,3.50
2019-03-31T22:06:23.516Z,3.50
2019-03-31T22:08:51.484Z,3.50
2019-03-31T22:11:19.392Z,3.60
2019-03-31T22:13:47.300Z,3.60
2019-03-31T22:16:15.264Z,3.70
2019-03-31T22:18:43.105Z,3.60
2019-03-31T22:21:11.077Z,3.60
2019-03-31T22:23:38.958Z,3.60
2019-03-31T22:26:07.011Z,3.60
2019-03-31T22:28:34.893Z,3.60
2019-03-31T22:31:02.755Z,3.60
2019-03-31T22:33:30.685Z,3.50
2019-03-31T22:36:16.311Z,3.50
2019-03-31T22:38:44.184Z,3.40
2019-03-31T22:41:12.178Z,3.40
2019-03-31T22:43:40.072Z,3.40
2019-03-31T22:46:08.064Z,3.40
2019-03-31T22:48:35.972Z,3.40
2019-03-31T22:51:03.924Z,3.40
2019-03-31T22:53:31.767Z,3.40
2019-03-31T22:55:59.623Z,3.30
2019-03-31T22:58:27.639Z,3.30
2019-03-31T23:00:55.652Z,3.30
2019-03-31T23:03:23.581Z,3.30
2019-03-31T23:05:51.445Z,3.30
2019-03-31T23:08:19.410Z,3.30
2019-03-31T23:10:47.322Z,3.30
2019-03-31T23:13:15.163Z,3.30
2019-03-31T23:15:43.185Z,3.30
2019-03-31T23:18:11.101Z,3.30
2019-03-31T23:20:39.025Z,3.20
2019-03-31T23:23:06.943Z,3.20
2019-03-31T23:25:34.986Z,3.10
2019-03-31T23:28:02.822Z,3.10
2019-03-31T23:30:30.745Z,3.00
2019-03-31T23:32:58.704Z,3.00
2019-03-31T23:35:26.736Z,2.90
2019-03-31T23:37:54.649Z,2.80
2019-03-31T23:40:22.558Z,2.70
2019-03-31T23:42:50.434Z,2.60
2019-03-31T23:45:18.343Z,2.60
2019-03-31T23:47:46.278Z,2.50
2019-03-31T23:50:14.187Z,2.50
2019-03-31T23:52:42.058Z,2.50
2019-03-31T23:55:09.965Z,2.50
2019-03-31T23:57:41.377Z,2.50
